Mentor, OH (44061)

2:45 AM EDT on August 25, 2016 (GMT -0400)
Mentorfire5 | | Change Station

Elev 620 ft 41.70 °N, 81.34 °W | Updated 11 minutes ago

Rain
Rain
70.8 °F
Feels Like 70.8 °F
N
1.0
Wind Variable Wind from South
Gusts 6.0 mph

Today
High -- | Low -- °F
--% Chance of Precip.
Yesterday
High -- | Low -- °F
Precip. -- in
Pressure 29.95 in
Visibility 10.0 miles
Clouds Few 2700 ft
Scattered Clouds 3900 ft
Scattered Clouds 4800 ft
Dew Point 69 °F
Humidity 94%
Rainfall 1.30 in
Snow Depth Not available.
6:44 AM 8:09 PM
Waning Gibbous, 49% visible
SPECI KBKL 250602Z 18010KT 10SM FEW027 SCT039 SCT048 23/21 A2995 RMK AO2 WSHFT 0542 T02330211
Pressure 29.95 in
Visibility 10.0 miles
Clouds Few 2700 ft
Scattered Clouds 3900 ft
Scattered Clouds 4800 ft
Dew Point 69 °F
Humidity 94%
Rainfall 1.30 in
Snow Depth Not available.
6:44 AM 8:09 PM
Waning Gibbous, 49% visible
SPECI KBKL 250602Z 18010KT 10SM FEW027 SCT039 SCT048 23/21 A2995 RMK AO2 WSHFT 0542 T02330211

10-Day Weather Forecast

Almanac

Astronomy

Aug. 25, 2016 Rise Set
Actual Time
Civil Twilight
Nautical Twilight
Astronomical Twilight
Moon
Length of Visible Light
Length of Day
Tomorrow will be .
, % of the Moon is Illuminated

Today's Extremes

State Highs State Lows

Community

WunderPhotos

Upload Photos

1,934,803 photos uploaded!

WunderBlog® & News

Nearby

Air Quality

  Air Quality AQ Index Pollutant
Not available.

Snow Depth

Station Depth Elevation

Earthquake Activity

City Distance Mag. Time & Date
Minimum magnitude displayed is 2.5.

Coastal Water Temperatures

Place Temperature

Stations

Nearby Weather Stations

Station Location Temp. Windchill Dew Point Humidity Wind Precip. Elev Updated Type
                   

Watches & Warnings

There are currently no watches in effect.